Fsl New York — 9VBQ8 — position and weather

sailwx.info

Track history (hours):
 
Tides and Currents Weather Stations Pressure Air Temp Water Temp Dewpoint Dewpoint Depression Visibility Wind Speed Wind Dir Waves Ship Positions

Fsl New York

Last reported at 2017-Jul-17 14:13 UTC. Time now 2017-Aug-20 11:37 UTC.
Position N 37°51' W 013°12'.
Warning: this ship's position is 33 days out of date.

Length 145 m; draft 8.9 m.

Type: Tanker. MMSI: 565174000.

Date/timePositionNaut miles runAvg speedWind from/ knotsBaromVisibWave heightAir tempDewpointWater temp
2017-Jul-17 14:13N 37°51' W 013°12'2213.5
2017-Jul-17 12:36N 38°09' W 012°55'313.4
2017-Jul-17 12:23N 38°11' W 012°54'613.2
2017-Jul-17 11:57N 38°16' W 012°51'613.3
2017-Jul-17 11:28N 38°22' W 012°47'812.9
2017-Jul-17 10:51N 38°30' W 012°43'513.5
2017-Jul-17 10:27N 38°35' W 012°40'813.5
2017-Jul-17 09:53N 38°42' W 012°36'513.3
2017-Jul-17 09:29N 38°46' W 012°34'1213.4
2017-Jul-17 08:34N 38°58' W 012°27'213.9
2017-Jul-17 08:27N 38°59' W 012°26'2213.5
2017-Jul-17 06:50N 39°19' W 012°15'513.2
2017-Jul-17 06:28N 39°24' W 012°12'2913.3
2017-Jul-17 04:19N 39°50' W 011°57'513.6
2017-Jul-17 03:56N 39°55' W 011°54'913.1
2017-Jul-17 03:14N 40°03' W 011°50'413.1
2017-Jul-17 02:55N 40°07' W 011°47'613.3
2017-Jul-17 02:27N 40°12' W 011°44'613.3
2017-Jul-17 01:59N 40°18' W 011°41'33711.4
2017-Jul-15 20:17N 43°49' W 005°46'413.5
2017-Jul-15 20:00N 43°49' W 005°41'713.6
2017-Jul-15 19:29N 43°48' W 005°31'613.5
2017-Jul-15 19:00N 43°47' W 005°22'713.5
2017-Jul-15 18:28N 43°46' W 005°12'613.7
2017-Jul-15 18:01N 43°45' W 005°04'713.4
2017-Jul-15 17:27N 43°45' W 004°53'1613.5
2017-Jul-15 16:15N 43°42' W 004°31'  
2017-Jul-11 15:30N 50°10' W 001°54'817.0
2017-Jul-11 15:00N 50°13' W 001°42'816.7
2017-Jul-11 14:30N 50°15' W 001°29'816.1
2017-Jul-11 14:00N 50°17' W 001°17'3113.8
2017-Jul-11 11:44N 50°25' W 000°29'312.3
2017-Jul-11 11:30N 50°26' W 000°25'612.1
2017-Jul-11 11:00N 50°28' W 000°17'611.7
2017-Jul-11 10:30N 50°29' W 000°08'611.2
2017-Jul-11 10:00N 50°30' E 000°01'611.4
2017-Jul-11 09:30N 50°32' E 000°10'611.7
2017-Jul-11 09:00N 50°34' E 000°18'1012.5
2017-Jul-11 08:13N 50°37' E 000°33'413.5
2017-Jul-11 07:57N 50°39' E 000°38'614.1
2017-Jul-11 07:30N 50°43' E 000°46'814.9
2017-Jul-11 06:56N 50°47' E 000°57'815.2
2017-Jul-11 06:26N 50°52' E 001°06'615.1
2017-Jul-11 06:01N 50°57' E 001°14'714.8
2017-Jul-11 05:31N 51°02' E 001°22'714.0
2017-Jul-11 05:01N 51°06' E 001°31'612.7
2017-Jul-11 04:30N 51°10' E 001°39'612.3
2017-Jul-11 04:00N 51°14' E 001°46'612.1
2017-Jul-11 03:30N 51°19' E 001°51'611.6
2017-Jul-11 03:01N 51°24' E 001°56'510.8
2017-Jul-11 02:30N 51°24' E 002°05'612.9
2017-Jul-11 02:00N 51°21' E 002°14'510.8
2017-Jul-11 01:30N 51°21' E 002°23'611.4
2017-Jul-11 01:00N 51°23' E 002°32'611.8
2017-Jul-11 00:31N 51°23' E 002°41'5 9.0
2017-Jul-11 00:00N 51°22' E 002°48'611.4
2017-Jul-10 23:31N 51°23' E 002°57'611.2
2017-Jul-10 23:01N 51°24' E 003°06'612.3
2017-Jul-10 22:30N 51°25' E 003°16'612.5
2017-Jul-10 22:00N 51°25' E 003°26'612.2
2017-Jul-10 21:30N 51°26' E 003°35'4 8.9
2017-Jul-10 21:00N 51°25' E 003°42'612.5
2017-Jul-10 20:30N 51°21' E 003°50'612.8
2017-Jul-10 20:00N 51°25' E 003°58'4 8.9
2017-Jul-10 19:30N 51°23' E 004°04'611.7
2017-Jul-10 19:00N 51°23' E 004°13'611.3
2017-Jul-10 18:30N 51°18' E 004°17'2 4.1
2017-Jul-10 18:00N 51°17' E 004°20'0 0.0
2017-Jul-10 17:30N 51°17' E 004°20'0 0.3
2017-Jul-10 16:52N 51°17' E 004°20'0 0.0
2017-Jul-10 15:49N 51°17' E 004°20'0 0.0
2017-Jul-10 15:30N 51°17' E 004°20'0 0.0
2017-Jul-10 15:00N 51°17' E 004°20'0 0.0
2017-Jul-10 14:30N 51°17' E 004°20'0 0.0
2017-Jul-10 14:00N 51°17' E 004°20'0 0.0
2017-Jul-10 13:30N 51°17' E 004°20'0 0.0
2017-Jul-10 13:00N 51°17' E 004°20'0 0.0
2017-Jul-10 12:30N 51°17' E 004°20'0 0.0
2017-Jul-10 12:00N 51°17' E 004°20'0 0.0
2017-Jul-10 11:30N 51°17' E 004°20'0 0.0
2017-Jul-10 11:00N 51°17' E 004°20'0 0.0
2017-Jul-10 10:30N 51°17' E 004°20'0 0.0
2017-Jul-10 10:00N 51°17' E 004°20'0 0.0
2017-Jul-10 09:30N 51°17' E 004°20'0 0.0
2017-Jul-10 09:00N 51°17' E 004°20'0 0.0
2017-Jul-10 08:30N 51°17' E 004°20'0 0.0
2017-Jul-10 08:00N 51°17' E 004°20'0 0.0
2017-Jul-10 07:30N 51°17' E 004°20'0 0.0
2017-Jul-10 07:00N 51°17' E 004°20'0 0.0
2017-Jul-10 06:30N 51°17' E 004°20'0 0.0
2017-Jul-10 06:00N 51°17' E 004°20'0 0.0
2017-Jul-10 05:30N 51°17' E 004°20'0 0.0
2017-Jul-10 05:00N 51°17' E 004°20'0 0.0
2017-Jul-10 04:30N 51°17' E 004°20'0 0.0
2017-Jul-10 04:00N 51°17' E 004°20'0 0.0
2017-Jul-10 03:30N 51°17' E 004°20'0 0.0
2017-Jul-10 03:00N 51°17' E 004°20'0 0.0
2017-Jul-10 02:30N 51°17' E 004°20'0 0.0
2017-Jul-10 02:00N 51°17' E 004°20'0 0.0
2017-Jul-10 01:30N 51°17' E 004°20'0 0.0
2017-Jul-10 01:00N 51°17' E 004°20'0 0.0
2017-Jul-10 00:30N 51°17' E 004°20'0 0.0
2017-Jul-10 00:00N 51°17' E 004°20'0 0.0
2017-Jul-09 23:30N 51°17' E 004°20'0 0.0
2017-Jul-09 23:00N 51°17' E 004°20'0 0.0
2017-Jul-09 22:30N 51°17' E 004°20'0 0.4
2017-Jul-09 22:00N 51°17' E 004°20'0 0.0
2017-Jul-09 21:30N 51°17' E 004°20'0 0.0
2017-Jul-09 21:00N 51°17' E 004°20'0 0.0
2017-Jul-09 20:30N 51°17' E 004°20'0 0.0
2017-Jul-09 20:00N 51°17' E 004°20'0 0.0
2017-Jul-09 19:30N 51°17' E 004°20'0 0.0
2017-Jul-09 19:00N 51°17' E 004°20'0 0.0
2017-Jul-09 18:30N 51°17' E 004°20'0 0.0
2017-Jul-09 18:00N 51°17' E 004°20'0 0.0
2017-Jul-09 17:30N 51°17' E 004°20'0 0.0
2017-Jul-09 17:00N 51°17' E 004°20'0 0.0
2017-Jul-09 16:30N 51°17' E 004°20'0 0.0
2017-Jul-09 16:00N 51°17' E 004°20'0 0.0
2017-Jul-09 15:30N 51°17' E 004°20'0 0.0
2017-Jul-09 15:00N 51°17' E 004°20'0 0.0
2017-Jul-09 14:30N 51°17' E 004°20'0 0.0
2017-Jul-09 14:00N 51°17' E 004°20'0 0.0
2017-Jul-09 13:30N 51°17' E 004°20'0 0.0
2017-Jul-09 13:00N 51°17' E 004°20'2 4.1
2017-Jul-09 12:31N 51°19' E 004°19'3 0.1
2017-Jul-08 09:03N 51°22' E 004°17'0 1.9
2017-Jul-08 08:58N 51°21' E 004°17'3 5.7
2017-Jul-08 08:30N 51°19' E 004°19'3 6.9
2017-Jul-08 08:00N 51°16' E 004°21'1 1.3
2017-Jul-08 07:30N 51°15' E 004°22'0 0.0
2017-Jul-08 06:58N 51°15' E 004°22'0 0.0
2017-Jul-08 06:28N 51°15' E 004°22'0 0.0
2017-Jul-08 05:58N 51°15' E 004°22'0 0.0
2017-Jul-08 05:28N 51°15' E 004°22'0 0.0
2017-Jul-08 04:58N 51°15' E 004°22'0 0.0
2017-Jul-08 04:28N 51°15' E 004°22'0 0.0
2017-Jul-08 03:58N 51°15' E 004°22'0 0.0
2017-Jul-08 03:28N 51°15' E 004°22'0 0.0
2017-Jul-08 02:58N 51°15' E 004°22'0 0.0
2017-Jul-08 02:28N 51°15' E 004°22'0 0.0
2017-Jul-08 01:58N 51°15' E 004°22'0 0.0
2017-Jul-08 01:28N 51°15' E 004°22'0 0.0
2017-Jul-08 00:58N 51°15' E 004°22'0 0.0
2017-Jul-08 00:28N 51°15' E 004°22'0 0.0
2017-Jul-07 23:55N 51°15' E 004°22'0 0.0
2017-Jul-07 23:28N 51°15' E 004°22'0 0.0
2017-Jul-07 22:58N 51°15' E 004°22'0 0.0
2017-Jul-07 22:28N 51°15' E 004°22'0 0.0
2017-Jul-07 21:58N 51°15' E 004°22'0 0.0
2017-Jul-07 21:28N 51°15' E 004°22'0 0.0
2017-Jul-07 20:58N 51°15' E 004°22'0 0.0
2017-Jul-07 20:28N 51°15' E 004°22'0 0.0
2017-Jul-07 19:58N 51°15' E 004°22'0 0.0
2017-Jul-07 19:28N 51°15' E 004°22'0 0.0
2017-Jul-07 18:58N 51°15' E 004°22'0 0.0
2017-Jul-07 18:28N 51°15' E 004°22'0 0.0
2017-Jul-07 17:58N 51°15' E 004°22'0 0.0
2017-Jul-07 17:28N 51°15' E 004°22'0 0.0
2017-Jul-07 16:58N 51°15' E 004°22'0 0.0
2017-Jul-07 16:28N 51°15' E 004°22'0 0.0
2017-Jul-07 16:00N 51°15' E 004°22'0 0.0
2017-Jul-07 15:30N 51°15' E 004°22'0 0.2
2017-Jul-07 15:00N 51°15' E 004°21'  
Track history (hours):
 
Tides and Currents Weather Stations Pressure Air Temp Water Temp Dewpoint Dewpoint Depression Visibility Wind Speed Wind Dir Waves Ship Positions

Fsl New York

Last reported at 2017-Jul-17 14:13 UTC. Time now 2017-Aug-20 11:37 UTC.
Position N 37°51' W 013°12'.
Warning: this ship's position is 33 days out of date.

Length 145 m; draft 8.9 m.

Type: Tanker. MMSI: 565174000.

Date/timePositionNaut miles runAvg speedWind from/ knotsBaromVisibWave heightAir tempDewpointWater temp
2017-Jul-17 14:13N 37°51' W 013°12'2213.5
2017-Jul-17 12:36N 38°09' W 012°55'313.4
2017-Jul-17 12:23N 38°11' W 012°54'613.2
2017-Jul-17 11:57N 38°16' W 012°51'613.3
2017-Jul-17 11:28N 38°22' W 012°47'812.9
2017-Jul-17 10:51N 38°30' W 012°43'513.5
2017-Jul-17 10:27N 38°35' W 012°40'813.5
2017-Jul-17 09:53N 38°42' W 012°36'513.3
2017-Jul-17 09:29N 38°46' W 012°34'1213.4
2017-Jul-17 08:34N 38°58' W 012°27'213.9
2017-Jul-17 08:27N 38°59' W 012°26'2213.5
2017-Jul-17 06:50N 39°19' W 012°15'513.2
2017-Jul-17 06:28N 39°24' W 012°12'2913.3
2017-Jul-17 04:19N 39°50' W 011°57'513.6
2017-Jul-17 03:56N 39°55' W 011°54'913.1
2017-Jul-17 03:14N 40°03' W 011°50'413.1
2017-Jul-17 02:55N 40°07' W 011°47'613.3
2017-Jul-17 02:27N 40°12' W 011°44'613.3
2017-Jul-17 01:59N 40°18' W 011°41'33711.4
2017-Jul-15 20:17N 43°49' W 005°46'413.5
2017-Jul-15 20:00N 43°49' W 005°41'713.6
2017-Jul-15 19:29N 43°48' W 005°31'613.5
2017-Jul-15 19:00N 43°47' W 005°22'713.5
2017-Jul-15 18:28N 43°46' W 005°12'613.7
2017-Jul-15 18:01N 43°45' W 005°04'713.4
2017-Jul-15 17:27N 43°45' W 004°53'1613.5
2017-Jul-15 16:15N 43°42' W 004°31'  
2017-Jul-11 15:30N 50°10' W 001°54'817.0
2017-Jul-11 15:00N 50°13' W 001°42'816.7
2017-Jul-11 14:30N 50°15' W 001°29'816.1
2017-Jul-11 14:00N 50°17' W 001°17'3113.8
2017-Jul-11 11:44N 50°25' W 000°29'312.3
2017-Jul-11 11:30N 50°26' W 000°25'612.1
2017-Jul-11 11:00N 50°28' W 000°17'611.7
2017-Jul-11 10:30N 50°29' W 000°08'611.2
2017-Jul-11 10:00N 50°30' E 000°01'611.4
2017-Jul-11 09:30N 50°32' E 000°10'611.7
2017-Jul-11 09:00N 50°34' E 000°18'1012.5
2017-Jul-11 08:13N 50°37' E 000°33'413.5
2017-Jul-11 07:57N 50°39' E 000°38'614.1
2017-Jul-11 07:30N 50°43' E 000°46'814.9
2017-Jul-11 06:56N 50°47' E 000°57'815.2
2017-Jul-11 06:26N 50°52' E 001°06'615.1
2017-Jul-11 06:01N 50°57' E 001°14'714.8
2017-Jul-11 05:31N 51°02' E 001°22'714.0
2017-Jul-11 05:01N 51°06' E 001°31'612.7
2017-Jul-11 04:30N 51°10' E 001°39'612.3
2017-Jul-11 04:00N 51°14' E 001°46'612.1
2017-Jul-11 03:30N 51°19' E 001°51'611.6
2017-Jul-11 03:01N 51°24' E 001°56'510.8
2017-Jul-11 02:30N 51°24' E 002°05'612.9
2017-Jul-11 02:00N 51°21' E 002°14'510.8
2017-Jul-11 01:30N 51°21' E 002°23'611.4
2017-Jul-11 01:00N 51°23' E 002°32'611.8
2017-Jul-11 00:31N 51°23' E 002°41'5 9.0
2017-Jul-11 00:00N 51°22' E 002°48'611.4
2017-Jul-10 23:31N 51°23' E 002°57'611.2
2017-Jul-10 23:01N 51°24' E 003°06'612.3
2017-Jul-10 22:30N 51°25' E 003°16'612.5
2017-Jul-10 22:00N 51°25' E 003°26'612.2
2017-Jul-10 21:30N 51°26' E 003°35'4 8.9
2017-Jul-10 21:00N 51°25' E 003°42'612.5
2017-Jul-10 20:30N 51°21' E 003°50'612.8
2017-Jul-10 20:00N 51°25' E 003°58'4 8.9
2017-Jul-10 19:30N 51°23' E 004°04'611.7
2017-Jul-10 19:00N 51°23' E 004°13'611.3
2017-Jul-10 18:30N 51°18' E 004°17'2 4.1
2017-Jul-10 18:00N 51°17' E 004°20'0 0.0
2017-Jul-10 17:30N 51°17' E 004°20'0 0.3
2017-Jul-10 16:52N 51°17' E 004°20'0 0.0
2017-Jul-10 15:49N 51°17' E 004°20'0 0.0
2017-Jul-10 15:30N 51°17' E 004°20'0 0.0
2017-Jul-10 15:00N 51°17' E 004°20'0 0.0
2017-Jul-10 14:30N 51°17' E 004°20'0 0.0
2017-Jul-10 14:00N 51°17' E 004°20'0 0.0
2017-Jul-10 13:30N 51°17' E 004°20'0 0.0
2017-Jul-10 13:00N 51°17' E 004°20'0 0.0
2017-Jul-10 12:30N 51°17' E 004°20'0 0.0
2017-Jul-10 12:00N 51°17' E 004°20'0 0.0
2017-Jul-10 11:30N 51°17' E 004°20'0 0.0
2017-Jul-10 11:00N 51°17' E 004°20'0 0.0
2017-Jul-10 10:30N 51°17' E 004°20'0 0.0
2017-Jul-10 10:00N 51°17' E 004°20'0 0.0
2017-Jul-10 09:30N 51°17' E 004°20'0 0.0
2017-Jul-10 09:00N 51°17' E 004°20'0 0.0
2017-Jul-10 08:30N 51°17' E 004°20'0 0.0
2017-Jul-10 08:00N 51°17' E 004°20'0 0.0
2017-Jul-10 07:30N 51°17' E 004°20'0 0.0
2017-Jul-10 07:00N 51°17' E 004°20'0 0.0
2017-Jul-10 06:30N 51°17' E 004°20'0 0.0
2017-Jul-10 06:00N 51°17' E 004°20'0 0.0
2017-Jul-10 05:30N 51°17' E 004°20'0 0.0
2017-Jul-10 05:00N 51°17' E 004°20'0 0.0
2017-Jul-10 04:30N 51°17' E 004°20'0 0.0
2017-Jul-10 04:00N 51°17' E 004°20'0 0.0
2017-Jul-10 03:30N 51°17' E 004°20'0 0.0
2017-Jul-10 03:00N 51°17' E 004°20'0 0.0
2017-Jul-10 02:30N 51°17' E 004°20'0 0.0
2017-Jul-10 02:00N 51°17' E 004°20'0 0.0
2017-Jul-10 01:30N 51°17' E 004°20'0 0.0
2017-Jul-10 01:00N 51°17' E 004°20'0 0.0
2017-Jul-10 00:30N 51°17' E 004°20'0 0.0
2017-Jul-10 00:00N 51°17' E 004°20'0 0.0
2017-Jul-09 23:30N 51°17' E 004°20'0 0.0
2017-Jul-09 23:00N 51°17' E 004°20'0 0.0
2017-Jul-09 22:30N 51°17' E 004°20'0 0.4
2017-Jul-09 22:00N 51°17' E 004°20'0 0.0
2017-Jul-09 21:30N 51°17' E 004°20'0 0.0
2017-Jul-09 21:00N 51°17' E 004°20'0 0.0
2017-Jul-09 20:30N 51°17' E 004°20'0 0.0
2017-Jul-09 20:00N 51°17' E 004°20'0 0.0
2017-Jul-09 19:30N 51°17' E 004°20'0 0.0
2017-Jul-09 19:00N 51°17' E 004°20'0 0.0
2017-Jul-09 18:30N 51°17' E 004°20'0 0.0
2017-Jul-09 18:00N 51°17' E 004°20'0 0.0
2017-Jul-09 17:30N 51°17' E 004°20'0 0.0
2017-Jul-09 17:00N 51°17' E 004°20'0 0.0
2017-Jul-09 16:30N 51°17' E 004°20'0 0.0
2017-Jul-09 16:00N 51°17' E 004°20'0 0.0
2017-Jul-09 15:30N 51°17' E 004°20'0 0.0
2017-Jul-09 15:00N 51°17' E 004°20'0 0.0
2017-Jul-09 14:30N 51°17' E 004°20'0 0.0
2017-Jul-09 14:00N 51°17' E 004°20'0 0.0
2017-Jul-09 13:30N 51°17' E 004°20'0 0.0
2017-Jul-09 13:00N 51°17' E 004°20'2 4.1
2017-Jul-09 12:31N 51°19' E 004°19'3 0.1
2017-Jul-08 09:03N 51°22' E 004°17'0 1.9
2017-Jul-08 08:58N 51°21' E 004°17'3 5.7
2017-Jul-08 08:30N 51°19' E 004°19'3 6.9
2017-Jul-08 08:00N 51°16' E 004°21'1 1.3
2017-Jul-08 07:30N 51°15' E 004°22'0 0.0
2017-Jul-08 06:58N 51°15' E 004°22'0 0.0
2017-Jul-08 06:28N 51°15' E 004°22'0 0.0
2017-Jul-08 05:58N 51°15' E 004°22'0 0.0
2017-Jul-08 05:28N 51°15' E 004°22'0 0.0
2017-Jul-08 04:58N 51°15' E 004°22'0 0.0
2017-Jul-08 04:28N 51°15' E 004°22'0 0.0
2017-Jul-08 03:58N 51°15' E 004°22'0 0.0
2017-Jul-08 03:28N 51°15' E 004°22'0 0.0
2017-Jul-08 02:58N 51°15' E 004°22'0 0.0
2017-Jul-08 02:28N 51°15' E 004°22'0 0.0
2017-Jul-08 01:58N 51°15' E 004°22'0 0.0
2017-Jul-08 01:28N 51°15' E 004°22'0 0.0
2017-Jul-08 00:58N 51°15' E 004°22'0 0.0
2017-Jul-08 00:28N 51°15' E 004°22'0 0.0
2017-Jul-07 23:55N 51°15' E 004°22'0 0.0
2017-Jul-07 23:28N 51°15' E 004°22'0 0.0
2017-Jul-07 22:58N 51°15' E 004°22'0 0.0
2017-Jul-07 22:28N 51°15' E 004°22'0 0.0
2017-Jul-07 21:58N 51°15' E 004°22'0 0.0
2017-Jul-07 21:28N 51°15' E 004°22'0 0.0
2017-Jul-07 20:58N 51°15' E 004°22'0 0.0
2017-Jul-07 20:28N 51°15' E 004°22'0 0.0
2017-Jul-07 19:58N 51°15' E 004°22'0 0.0
2017-Jul-07 19:28N 51°15' E 004°22'0 0.0
2017-Jul-07 18:58N 51°15' E 004°22'0 0.0
2017-Jul-07 18:28N 51°15' E 004°22'0 0.0
2017-Jul-07 17:58N 51°15' E 004°22'0 0.0
2017-Jul-07 17:28N 51°15' E 004°22'0 0.0
2017-Jul-07 16:58N 51°15' E 004°22'0 0.0
2017-Jul-07 16:28N 51°15' E 004°22'0 0.0
2017-Jul-07 16:00N 51°15' E 004°22'0 0.0
2017-Jul-07 15:30N 51°15' E 004°22'0 0.2
2017-Jul-07 15:00N 51°15' E 004°21'  

Dump ship's entire track history